DW1695 Weather Reports


Display with metric or nautical units.
time (UTC)temp
F
wind
direction
speed
MPH
gust
MPH
rain 1hr
in
rain 24hr
in
rain mn
in
humidity
%
barometer
mb
20181213104504 49 180 9.0 20.0 0.09 1.13 0.26 96 1018.6
20181213104005 49 182 11.0 23.0 0.10 1.13 0.26 96 1018.7
20181213103505 49 179 13.0 26.0 0.10 1.12 0.25 96 1018.7
20181213103006 49 185 9.0 21.0 0.10 1.11 0.24 96 1018.8
20181213102504 49 188 10.0 20.0 0.12 1.11 0.24 96 1018.7
20181213102005 49 170 12.0 22.0 0.13 1.11 0.24 96 1018.6
20181213101504 49 169 12.0 23.0 0.12 1.09 0.22 96 1018.7
20181213101005 49 154 11.0 22.0 0.13 1.09 0.22 96 1018.7
20181213100504 48 144 11.0 20.0 0.13 1.08 0.21 96 1018.7
20181213100005 48 172 10.0 26.0 0.12 1.07 0.20 96 1018.7
20181213095504 48 176 10.0 30.0 0.11 1.06 0.19 96 1018.7
20181213095004 48 161 7.0 18.0 0.11 1.05 0.18 96 1018.8
20181213094504 48 168 7.0 16.0 0.10 1.04 0.17 96 1018.8
20181213094005 48 188 9.0 20.0 0.10 1.03 0.16 96 1018.8
20181213093504 48 168 10.0 21.0 0.09 1.02 0.15 96 1018.8
20181213093005 48 163 9.0 24.0 0.09 1.01 0.14 96 1018.8
20181213092504 48 169 12.0 24.0 0.07 0.99 0.12 96 1018.7
20181213092004 48 187 7.0 22.0 0.07 0.98 0.11 96 1018.7
20181213091503 48 169 8.0 16.0 0.07 0.97 0.10 96 1018.7
20181213091004 48 147 11.0 23.0 0.07 0.96 0.09 96 1018.7
20181213090503 48 162 9.0 20.0 0.07 0.95 0.08 96 1018.7
20181213090004 48 162 10.0 21.0 0.08 0.95 0.08 96 1018.7
20181213085504 48 177 10.0 25.0 0.10 0.95 0.08 96 1018.8
20181213085004 48 189 10.0 24.0 0.10 0.94 0.07 96 1018.9
20181213084506 48 168 12.0 28.0 0.11 0.94 0.07 96 1019.0
20181213084004 48 168 11.0 22.0 0.12 0.93 0.06 96 1019.1
20181213083504 48 147 11.0 23.0 0.13 0.93 0.06 96 1019.0
20181213083005 48 168 7.0 32.0 0.13 0.92 0.05 96 1019.0
20181213082504 47 132 7.0 32.0 0.15 0.92 0.05 96 1019.0
20181213082004 47 184 8.0 22.0 0.15 0.91 0.04 96 1019.1
20181213081504 47 173 12.0 21.0 0.15 0.90 0.03 96 1019.0
20181213081005 47 170 10.0 23.0 0.16 0.89 0.02 96 1018.9
20181213080504 47 161 9.0 22.0 0.16 0.89 0.01 96 1019.1
20181213080004 47 154 11.0 21.0 0.16 0.88 0.00 96 1019.1
20181213075504 47 179 9.0 21.0 0.16 0.87 0.87 96 1019.2
20181213075004 47 189 7.0 26.0 0.15 0.85 0.85 96 1019.2
20181213074504 47 196 12.0 24.0 0.15 0.84 0.84 96 1019.3
20181213074004 47 193 10.0 22.0 0.15 0.83 0.83 96 1019.1
20181213073504 47 169 9.0 20.0 0.14 0.81 0.81 96 1019.2
20181213073004 47 162 10.0 20.0 0.14 0.80 0.80 96 1019.1
20181213072505 47 176 11.0 23.0 0.14 0.78 0.78 96 1019.1
20181213072005 47 161 13.0 23.0 0.14 0.77 0.77 96 1019.2
20181213071504 47 156 9.0 22.0 0.15 0.76 0.76 96 1019.5
20181213071005 47 148 8.0 23.0 0.15 0.75 0.75 96 1019.4
20181213070504 47 146 9.0 20.0 0.14 0.73 0.73 96 1019.4
20181213070004 47 156 7.0 24.0 0.14 0.72 0.72 96 1019.4
20181213065504 47 166 9.0 20.0 0.15 0.71 0.71 96 1019.6
20181213065004 47 175 10.0 25.0 0.15 0.70 0.70 96 1019.5
20181213064504 47 149 11.0 24.0 0.15 0.69 0.69 96 1019.5
20181213064004 47 152 9.0 20.0 0.16 0.68 0.68 96 1019.5
20181213063504 47 171 8.0 17.0 0.16 0.67 0.67 96 1019.5
20181213063004 47 160 6.0 17.0 0.16 0.66 0.66 96 1019.5
20181213062504 47 152 9.0 20.0 0.15 0.64 0.64 96 1019.5
20181213062004 47 171 6.0 14.0 0.15 0.63 0.63 96 1019.6
20181213061504 46 157 9.0 24.0 0.14 0.61 0.61 96 1019.5
20181213061004 46 152 7.0 17.0 0.14 0.60 0.60 96 1019.7
20181213060505 46 140 7.0 17.0 0.14 0.59 0.59 96 1019.7
20181213060005 46 148 9.0 20.0 0.14 0.58 0.58 96 1019.8
20181213055509 46 179 7.0 20.0 0.13 0.56 0.56 96 1019.8
20181213055004 46 147 8.0 17.0 0.14 0.55 0.55 96 1019.7
20181213054504 46 166 7.0 16.0 0.14 0.54 0.54 96 1019.6
20181213054004 46 139 8.0 17.0 0.13 0.52 0.52 96 1019.7
20181213053504 46 149 8.0 16.0 0.13 0.51 0.51 96 1019.8
20181213053004 46 161 9.0 29.0 0.13 0.50 0.50 96 1019.8
20181213052504 46 131 9.0 18.0 0.13 0.49 0.49 96 1019.7
20181213052004 46 149 8.0 16.0 0.13 0.48 0.48 96 1019.8
20181213051504 46 158 6.0 22.0 0.13 0.47 0.47 96 1020.0
20181213051004 47 146 7.0 15.0 0.13 0.46 0.46 96 1019.9
20181213050504 47 126 5.0 18.0 0.13 0.45 0.45 96 1020.0
20181213050004 47 159 9.0 18.0 0.15 0.44 0.44 96 1020.1
20181213045504 47 159 7.0 18.0 0.16 0.43 0.43 96 1020.1
20181213045004 47 155 6.0 15.0 0.16 0.41 0.41 96 1020.0
20181213044504 47 146 9.0 17.0 0.16 0.40 0.40 96 1020.1
20181213044004 47 145 5.0 20.0 0.16 0.39 0.39 96 1020.2
20181213043503 47 141 10.0 22.0 0.17 0.38 0.38 96 1020.2
20181213043004 47 157 7.0 15.0 0.17 0.37 0.37 96 1020.4
20181213042505 47 156 6.0 16.0 0.16 0.36 0.36 96 1020.4
20181213042004 47 140 7.0 16.0 0.16 0.35 0.35 95 1020.7
20181213041504 47 179 10.0 20.0 0.16 0.34 0.34 95 1020.7
20181213041004 47 162 7.0 20.0 0.16 0.33 0.33 95 1020.9
20181213040504 47 146 10.0 20.0 0.16 0.32 0.32 95 1020.8
20181213040004 47 165 7.0 13.0 0.13 0.29 0.29 95 1021.0
20181213035504 47 176 7.0 18.0 0.12 0.27 0.27 95 1021.2
20181213035004 47 155 8.0 20.0 0.10 0.25 0.25 95 1020.9
20181213034505 48 150 9.0 21.0 0.10 0.24 0.24 95 1021.0
20181213034004 48 162 7.0 16.0 0.10 0.23 0.23 95 1021.1
20181213033504 48 147 7.0 23.0 0.08 0.21 0.21 95 1021.1
20181213033004 48 149 10.0 20.0 0.08 0.20 0.20 95 1021.1
20181213032505 48 172 8.0 17.0 0.09 0.20 0.20 94 1021.1
20181213032005 48 149 7.0 20.0 0.08 0.19 0.19 94 1021.1
20181213031503 48 146 8.0 20.0 0.08 0.18 0.18 94 1021.2
20181213031004 48 171 5.0 12.0 0.07 0.17 0.17 94 1021.3
20181213030504 48 179 5.0 13.0 0.07 0.16 0.16 94 1021.3
20181213030004 48 153 6.0 18.0 0.08 0.16 0.16 94 1021.4
20181213025504 48 159 8.0 15.0 0.07 0.15 0.15 94 1021.4
20181213025005 48 175 6.0 14.0 0.07 0.15 0.15 94 1021.4
20181213024505 48 157 6.0 14.0 0.07 0.14 0.14 94 1021.6
20181213024004 48 149 7.0 16.0 0.06 0.13 0.13 94 1021.6
20181213023505 48 159 7.0 13.0 0.06 0.13 0.13 94 1021.6
20181213023005 48 147 6.0 13.0 0.05 0.12 0.12 94 1021.6
20181213022504 48 146 4.0 17.0 0.04 0.11 0.11 93 1021.6
20181213022004 48 149 8.0 20.0 0.04 0.11 0.11 93 1021.4
20181213021504 49 155 7.0 15.0 0.04 0.10 0.10 93 1021.4
20181213021004 49 157 8.0 17.0 0.04 0.10 0.10 93 1021.4
20181213020504 49 187 6.0 16.0 0.03 0.09 0.09 93 1021.5
20181213020004 49 159 6.0 18.0 0.02 0.08 0.08 93 1021.5
20181213015503 49 162 8.0 18.0 0.02 0.08 0.08 93 1021.6
20181213015004 49 159 7.0 15.0 0.02 0.08 0.08 92 1021.6
20181213014503 49 154 7.0 15.0 0.01 0.07 0.07 92 1021.7
20181213014004 49 160 6.0 20.0 0.01 0.07 0.07 92 1021.8
20181213013504 50 151 7.0 13.0 0.01 0.07 0.07 92 1021.9
20181213013004 50 161 6.0 17.0 0.01 0.07 0.07 92 1021.9
20181213012504 50 183 9.0 17.0 0.01 0.07 0.07 92 1022.0
20181213012004 50 163 7.0 18.0 0.01 0.07 0.07 92 1022.2
20181213011504 50 163 6.0 21.0 0.00 0.06 0.06 92 1022.3
20181213011004 50 166 8.0 20.0 0.00 0.06 0.06 92 1022.3
20181213010504 50 161 5.0 13.0 0.00 0.06 0.06 92 1022.3
20181213010004 50 172 7.0 18.0 0.00 0.06 0.06 91 1022.5
20181213005504 50 137 9.0 20.0 0.00 0.06 0.06 92 1022.5
20181213005004 50 170 6.0 12.0 0.00 0.06 0.06 92 1022.6
20181213004503 50 163 5.0 15.0 0.00 0.06 0.06 91 1022.7
20181213004004 50 155 6.0 17.0 0.00 0.06 0.06 91 1022.7
20181213003504 50 195 4.0 12.0 0.00 0.06 0.06 91 1022.8
20181213003005 50 149 5.0 16.0 0.00 0.06 0.06 91 1022.9
20181213002503 50 161 5.0 12.0 0.00 0.06 0.06 90 1022.9
20181213002005 50 146 4.0 13.0 0.00 0.06 0.06 90 1023.0
20181213001504 50 170 5.0 12.0 0.00 0.06 0.06 90 1023.0
20181213001004 50 183 5.0 12.0 0.00 0.06 0.06 90 1023.1
20181213000504 50 184 7.0 12.0 0.00 0.06 0.06 90 1023.1
20181213000004 50 202 7.0 12.0 0.00 0.06 0.06 91 1023.2
20181212235503 50 223 7.0 15.0 0.00 0.06 0.06 91 1023.1
20181212235005 50 217 6.0 13.0 0.00 0.06 0.06 92 1023.1
20181212234504 50 218 6.0 12.0 0.00 0.07 0.06 92 1023.1
20181212234004 50 213 7.0 13.0 0.00 0.07 0.06 92 1023.2
20181212233504 50 205 6.0 13.0 0.00 0.08 0.06 92 1023.3
20181212233005 49 211 5.0 15.0 0.00 0.08 0.06 91 1023.2
20181212232504 49 197 9.0 18.0 0.00 0.08 0.06 91 1023.2
20181212232004 49 204 8.0 18.0 0.00 0.08 0.06 91 1023.4
20181212231504 49 211 5.0 9.0 0.00 0.08 0.06 91 1023.3
20181212231004 49 201 3.0 12.0 0.00 0.08 0.06 90 1023.4
20181212230505 49 213 5.0 15.0 0.00 0.08 0.06 90 1023.6
20181212230005 49 204 5.0 10.0 0.00 0.08 0.06 90 1023.5
20181212225505 49 206 4.0 12.0 0.00 0.08 0.06 91 1023.6
20181212225005 49 189 4.0 8.0 0.00 0.08 0.06 92 1023.7
20181212224504 49 212 4.0 10.0 0.00 0.08 0.06 93 1023.6
20181212224005 49 225 5.0 13.0 0.00 0.08 0.06 94 1023.6
20181212223504 48 226 6.0 14.0 0.00 0.08 0.06 95 1023.6
20181212223005 48 224 5.0 16.0 0.00 0.09 0.06 95 1023.6
20181212222504 48 223 6.0 12.0 0.00 0.09 0.06 95 1023.7
20181212222004 48 243 5.0 16.0 0.00 0.11 0.06 95 1023.8
20181212221504 48 214 7.0 13.0 0.00 0.12 0.06 95 1023.8
20181212221004 48 205 7.0 16.0 0.00 0.14 0.06 95 1023.8
20181212220504 48 240 8.0 18.0 0.01 0.17 0.06 95 1024.0
20181212220004 48 261 13.0 22.0 0.02 0.18 0.06 95 1024.2
20181212215504 48 254 18.0 25.0 0.02 0.19 0.06 95 1024.3
20181212215004 48 274 16.0 25.0 0.02 0.21 0.06 95 1024.4
20181212214503 47 254 10.0 18.0 0.02 0.22 0.06 95 1024.4
20181212214003 48 251 13.0 23.0 0.02 0.23 0.06 95 1024.5
20181212213505 48 249 16.0 26.0 0.02 0.23 0.06 94 1024.4
20181212213004 49 229 9.0 24.0 0.02 0.24 0.06 95 1024.4
20181212212504 49 247 9.0 15.0 0.02 0.24 0.06 94 1024.4
20181212212004 49 243 6.0 13.0 0.02 0.24 0.06 93 1024.5
20181212211505 49 213 6.0 13.0 0.02 0.25 0.06 93 1024.6
20181212211004 49 214 6.0 15.0 0.02 0.25 0.06 92 1024.7
20181212210504 49 229 3.0 12.0 0.01 0.25 0.05 92 1024.8
20181212210004 49 215 6.0 14.0 0.00 0.24 0.04 92 1024.9
20181212205504 49 211 5.0 13.0 0.00 0.25 0.04 92 1024.9
20181212205004 49 182 3.0 12.0 0.00 0.26 0.04 92 1024.8
20181212204504 49 181 3.0 13.0 0.00 0.27 0.04 92 1024.9
20181212204005 49 174 3.0 9.0 0.00 0.28 0.04 92 1024.9
20181212203504 48 161 2.0 9.0 0.00 0.29 0.04 92 1025.0
20181212203004 48 170 3.0 12.0 0.00 0.31 0.04 92 1025.1
20181212202504 48 137 2.0 7.0 0.00 0.32 0.04 92 1025.1
20181212202004 48 164 2.0 10.0 0.00 0.34 0.04 92 1025.1
20181212201504 48 145 3.0 7.0 0.01 0.35 0.04 92 1025.2
20181212201004 48 170 3.0 8.0 0.01 0.38 0.04 92 1025.2
20181212200504 48 162 3.0 8.0 0.02 0.41 0.04 92 1025.3
20181212200004 48 153 2.0 8.0 0.02 0.43 0.04 92 1025.3
20181212195504 48 147 2.0 6.0 0.02 0.45 0.04 92 1025.3
20181212195005 47 142 5.0 10.0 0.02 0.48 0.04 93 1025.4
20181212194504 47 174 3.0 9.0 0.02 0.50 0.04 93 1025.6
20181212194006 47 150 3.0 10.0 0.02 0.52 0.04 93 1025.7
20181212193504 47 140 3.0 6.0 0.02 0.53 0.04 93 1025.6
20181212193004 47 142 2.0 6.0 0.02 0.56 0.04 93 1025.7
20181212192504 47 147 2.0 9.0 0.02 0.57 0.04 92 1026.0
20181212192005 47 200 3.0 10.0 0.02 0.59 0.04 92 1026.1
20181212191504 47 248 2.0 7.0 0.01 0.60 0.03 91 1026.1
20181212191004 47 157 1.0 6.0 0.01 0.62 0.03 91 1026.1
20181212190504 47 135 2.0 5.0 0.00 0.64 0.02 90 1026.1
20181212190004 47 155 2.0 6.0 0.00 0.66 0.02 90 1026.1
20181212185504 47 140 2.0 7.0 0.00 0.67 0.02 89 1026.1
20181212185004 47 134 2.0 5.0 0.00 0.69 0.02 89 1026.1
20181212184504 47 135 3.0 8.0 0.00 0.71 0.02 89 1026.1
20181212184005 47 137 4.0 8.0 0.00 0.73 0.02 89 1026.1
20181212183504 47 138 2.0 7.0 0.00 0.75 0.02 89 1026.2
20181212183004 47 129 2.0 7.0 0.00 0.77 0.02 89 1026.3
20181212182504 47 133 2.0 6.0 0.00 0.79 0.02 89 1026.4
20181212182005 47 134 2.0 6.0 0.00 0.81 0.02 88 1026.4
20181212181505 47 143 3.0 7.0 0.00 0.82 0.02 88 1026.4
20181212181004 47 130 1.0 3.0 0.00 0.84 0.02 88 1026.4
20181212180504 47 159 0.0 3.0 0.00 0.86 0.02 89 1026.4
20181212180004 47 144 2.0 7.0 0.00 0.87 0.02 89 1026.5
20181212175504 47 137 1.0 3.0 0.00 0.89 0.02 90 1026.4
20181212175004 46 133 1.0 3.0 0.00 0.90 0.02 90 1026.4
20181212174504 46 128 2.0 3.0 0.00 0.92 0.02 89 1026.3
20181212174004 46 147 0.0 2.0 0.00 0.94 0.02 90 1026.2
20181212173504 46 132 1.0 3.0 0.00 0.96 0.02 90 1026.0
20181212173004 46 129 0.0 3.0 0.00 0.98 0.02 90 1025.9
20181212172503 46 133 2.0 6.0 0.00 1.01 0.02 91 1025.8
20181212172005 46 118 2.0 5.0 0.00 1.03 0.02 91 1025.8
20181212171504 46 126 0.0 2.0 0.00 1.06 0.02 90 1025.8
20181212171005 46 176 1.0 3.0 0.00 1.08 0.02 90 1025.7
20181212170505 46 107 1.0 2.0 0.00 1.10 0.02 89 1025.7
20181212170004 46 141 1.0 3.0 0.00 1.11 0.02 88 1025.9
20181212165504 47 111 3.0 5.0 0.00 1.12 0.02 86 1025.8
20181212165004 48 127 1.0 6.0 0.00 1.14 0.02 85 1026.0
20181212164504 49 206 2.0 6.0 0.00 1.15 0.02 86 1025.9
20181212164004 49 234 2.0 5.0 0.00 1.16 0.02 86 1026.0
20181212163504 49 224 3.0 8.0 0.00 1.17 0.02 85 1025.9
20181212163003 49 248 6.0 10.0 0.00 1.19 0.02 85 1026.1
20181212162504 49 246 6.0 12.0 0.00 1.20 0.02 85 1026.1
20181212162004 49 248 5.0 8.0 0.00 1.22 0.02 84 1026.0
20181212161504 49 254 5.0 9.0 0.00 1.23 0.02 84 1025.9
20181212161006 49 257 6.0 10.0 0.00 1.25 0.02 83 1025.8
20181212160504 49 252 8.0 12.0 0.00 1.25 0.02 83 1025.9
20181212160003 49 255 6.0 9.0 0.00 1.26 0.02 83 1025.8
20181212155504 49 263 6.0 9.0 0.00 1.26 0.02 83 1025.6
20181212155004 49 255 5.0 8.0 0.00 1.26 0.02 83 1025.5
20181212154503 49 259 4.0 7.0 0.00 1.27 0.02 82 1025.4
20181212154004 49 266 4.0 7.0 0.00 1.27 0.02 82 1025.3
20181212153504 49 262 5.0 8.0 0.00 1.27 0.02 81 1025.3
20181212153005 49 285 6.0 10.0 0.00 1.27 0.02 80 1025.3
20181212152504 49 280 7.0 13.0 0.00 1.28 0.02 79 1025.3
20181212152004 49 282 8.0 12.0 0.00 1.29 0.02 79 1025.3
20181212151504 49 286 7.0 13.0 0.00 1.30 0.02 79 1025.2
20181212151004 49 282 7.0 12.0 0.00 1.31 0.02 81 1025.1
20181212150504 49 280 7.0 12.0 0.00 1.32 0.02 81 1025.0
20181212150003 49 283 7.0 12.0 0.00 1.33 0.02 83 1025.0
20181212145504 48 271 7.0 10.0 0.00 1.33 0.02 84 1025.0
20181212145004 49 282 6.0 9.0 0.00 1.34 0.02 84 1024.8
20181212144504 48 270 6.0 13.0 0.00 1.34 0.02 85 1024.7
20181212144004 48 281 7.0 9.0 0.00 1.34 0.02 85 1024.7
20181212143504 48 279 6.0 9.0 0.00 1.34 0.02 84 1024.6
20181212143004 48 286 6.0 10.0 0.00 1.34 0.02 84 1024.6
20181212142504 48 276 6.0 9.0 0.00 1.34 0.02 84 1024.5
20181212142005 48 277 7.0 10.0 0.00 1.34 0.02 83 1024.5
20181212141504 48 274 7.0 12.0 0.00 1.34 0.02 82 1024.4
20181212141004 48 277 6.0 9.0 0.00 1.34 0.02 81 1024.4
20181212140504 48 281 6.0 9.0 0.00 1.34 0.02 81 1024.3
20181212140004 47 284 6.0 9.0 0.00 1.34 0.02 80 1024.1
20181212135504 47 284 5.0 9.0 0.00 1.34 0.02 79 1024.1
20181212135004 47 282 6.0 9.0 0.00 1.34 0.02 78 1024.0
20181212134504 47 283 7.0 12.0 0.00 1.34 0.02 78 1024.0
20181212134003 47 286 7.0 12.0 0.00 1.35 0.02 79 1023.9
20181212133504 47 295 8.0 14.0 0.00 1.35 0.02 78 1023.8
20181212133005 47 285 12.0 16.0 0.00 1.35 0.02 81 1023.6
20181212132504 47 278 13.0 20.0 0.00 1.35 0.02 83 1023.6
20181212132004 47 301 15.0 24.0 0.00 1.35 0.02 84 1023.5
20181212131504 47 299 13.0 26.0 0.00 1.36 0.02 85 1023.5
20181212131004 48 305 19.0 26.0 0.00 1.36 0.02 83 1023.5
20181212130504 48 301 12.0 25.0 0.00 1.37 0.02 83 1023.3
20181212130005 48 292 13.0 20.0 0.00 1.38 0.02 85 1023.2
20181212125504 47 291 13.0 20.0 0.00 1.38 0.02 87 1023.2
20181212125004 46 295 3.0 14.0 0.00 1.38 0.02 90 1023.1
20181212124504 46 330 0.0 0.0 0.00 1.38 0.02 90 1023.1
20181212124004 46 15 0.0 3.0 0.00 1.38 0.02 89 1023.1
20181212123504 46 328 0.0 1.0 0.00 1.39 0.02 89 1023.0
20181212123004 46 306 1.0 3.0 0.00 1.39 0.02 90 1022.8
20181212122504 46 314 0.0 3.0 0.00 1.40 0.02 90 1022.8
20181212122005 46 319 2.0 5.0 0.01 1.40 0.02 90 1022.8
20181212121503 46 304 2.0 3.0 0.01 1.40 0.02 90 1022.8
20181212121004 46 308 3.0 6.0 0.01 1.41 0.02 90 1022.7
20181212120505 45 320 3.0 5.0 0.01 1.41 0.02 90 1022.6
20181212120004 45 316 2.0 5.0 0.01 1.42 0.02 90 1022.5
20181212115505 45 324 3.0 7.0 0.01 1.42 0.02 89 1022.4
20181212115004 45 330 5.0 7.0 0.01 1.43 0.02 89 1022.4
20181212114504 46 316 5.0 9.0 0.01 1.43 0.02 89 1022.3
20181212114004 45 316 5.0 10.0 0.01 1.43 0.02 90 1022.2
20181212113506 46 324 6.0 10.0 0.01 1.44 0.02 89 1022.1
20181212113003 46 327 10.0 14.0 0.01 1.44 0.02 87 1022.1
20181212112504 46 310 8.0 15.0 0.01 1.45 0.02 86 1022.0
20181212112003 47 323 13.0 29.0 0.00 1.45 0.01 84 1022.0
20181212111504 49 295 13.0 29.0 0.00 1.45 0.01 83 1021.6
20181212111004 49 297 13.0 23.0 0.00 1.46 0.01 83 1021.4
20181212110504 49 288 13.0 20.0 0.00 1.47 0.01 83 1021.2
20181212110004 49 294 14.0 22.0 0.00 1.48 0.01 81 1021.2
20181212105503 49 298 16.0 20.0 0.00 1.50 0.01 82 1021.0
20181212105004 49 294 13.0 20.0 0.00 1.51 0.01 83 1021.0